createdAt,value
2023-04-27T00:00:19.559Z,20.10
2023-04-27T00:02:46.929Z,20.50
2023-04-27T00:05:14.463Z,18.60
2023-04-27T00:07:41.635Z,19.10
2023-04-27T00:10:09.562Z,23.10
2023-04-27T00:12:36.665Z,19.80
2023-04-27T00:15:04.449Z,20.60
2023-04-27T00:17:31.480Z,20.60
2023-04-27T00:19:58.904Z,20.50
2023-04-27T00:22:25.731Z,21.00
2023-04-27T00:24:52.980Z,22.10
2023-04-27T00:27:19.860Z,21.60
2023-04-27T00:29:46.784Z,17.10
2023-04-27T00:32:13.709Z,15.30
2023-04-27T00:34:40.858Z,13.70
2023-04-27T00:37:07.833Z,14.10
2023-04-27T00:39:36.383Z,14.60
2023-04-27T00:42:03.344Z,17.20
2023-04-27T00:44:30.405Z,16.40
2023-04-27T00:46:59.263Z,16.10
2023-04-27T00:49:27.218Z,15.40
2023-04-27T00:51:54.821Z,15.00
2023-04-27T00:54:23.181Z,15.20
2023-04-27T00:56:51.625Z,14.60
2023-04-27T00:59:20.074Z,16.90
2023-04-27T01:01:48.092Z,18.30
2023-04-27T01:04:15.420Z,17.20
2023-04-27T01:06:42.583Z,24.60
2023-04-27T01:09:09.931Z,19.40
2023-04-27T01:11:36.947Z,17.00
2023-04-27T01:14:06.382Z,17.70
2023-04-27T01:16:34.064Z,20.60
2023-04-27T01:19:01.223Z,20.80
2023-04-27T01:21:28.131Z,18.40
2023-04-27T01:23:55.301Z,16.90
2023-04-27T01:26:22.743Z,16.40
2023-04-27T01:28:50.031Z,15.80
2023-04-27T01:31:17.141Z,15.70
2023-04-27T01:33:44.075Z,16.40
2023-04-27T01:36:11.537Z,14.80
2023-04-27T01:38:38.387Z,15.00
2023-04-27T01:41:06.477Z,16.20
2023-04-27T01:43:33.515Z,17.50
2023-04-27T01:46:08.274Z,16.40
2023-04-27T01:48:36.307Z,17.00
2023-04-27T01:51:04.255Z,15.90
2023-04-27T01:53:31.949Z,15.60
2023-04-27T01:56:03.771Z,15.60
2023-04-27T01:58:30.749Z,16.50
2023-04-27T02:00:57.992Z,17.50
2023-04-27T02:03:25.208Z,17.40
2023-04-27T02:05:52.191Z,17.90
2023-04-27T02:08:19.108Z,18.80
2023-04-27T02:10:46.073Z,20.40
2023-04-27T02:13:13.089Z,21.30
2023-04-27T02:15:40.150Z,19.80
2023-04-27T02:18:07.017Z,19.20
2023-04-27T02:20:33.939Z,20.60
2023-04-27T02:23:02.223Z,26.30
2023-04-27T02:25:29.669Z,29.50
2023-04-27T02:27:57.063Z,33.20
2023-04-27T02:30:24.555Z,35.60
2023-04-27T02:32:52.472Z,34.90
2023-04-27T02:35:19.865Z,30.20
2023-04-27T02:37:46.817Z,29.50
2023-04-27T02:40:14.274Z,28.40
2023-04-27T02:42:41.768Z,27.30
2023-04-27T02:45:09.316Z,29.10
2023-04-27T02:47:36.604Z,29.50
2023-04-27T02:50:04.496Z,31.30
2023-04-27T02:52:31.488Z,30.30
2023-04-27T02:54:58.406Z,28.80
2023-04-27T02:57:25.327Z,24.70
2023-04-27T02:59:52.283Z,23.30
2023-04-27T03:02:19.293Z,24.10
2023-04-27T03:04:46.179Z,28.90
2023-04-27T03:07:13.295Z,31.60
2023-04-27T03:09:40.184Z,28.10
2023-04-27T03:12:07.086Z,27.10
2023-04-27T03:14:34.046Z,27.30
2023-04-27T03:17:00.988Z,26.10
2023-04-27T03:19:28.443Z,26.50
2023-04-27T03:22:00.966Z,23.60
2023-04-27T03:24:28.499Z,24.90
2023-04-27T03:26:55.391Z,21.20
2023-04-27T03:29:22.568Z,20.10
2023-04-27T03:31:49.439Z,18.70
2023-04-27T03:34:17.171Z,20.20
2023-04-27T03:36:44.126Z,23.20
2023-04-27T03:39:11.202Z,21.80
2023-04-27T03:41:38.536Z,22.20
2023-04-27T03:44:05.571Z,22.10
2023-04-27T03:46:32.535Z,21.90
2023-04-27T03:48:59.685Z,21.30
2023-04-27T03:51:27.328Z,24.00
2023-04-27T03:53:54.454Z,21.80
2023-04-27T03:56:21.581Z,19.20
2023-04-27T03:58:48.414Z,17.70
2023-04-27T04:01:16.934Z,17.50
2023-04-27T04:03:44.152Z,18.40
2023-04-27T04:06:11.727Z,17.00
2023-04-27T04:08:38.649Z,18.00
2023-04-27T04:11:05.504Z,17.00
2023-04-27T04:13:32.455Z,14.50
2023-04-27T04:16:07.210Z,15.40
2023-04-27T04:18:34.728Z,14.50
2023-04-27T04:21:01.551Z,20.60
2023-04-27T04:23:28.618Z,20.30
2023-04-27T04:25:58.836Z,15.50
2023-04-27T04:28:25.753Z,17.50
2023-04-27T04:30:52.712Z,15.90
2023-04-27T04:33:20.088Z,17.00
2023-04-27T04:35:47.316Z,15.20
2023-04-27T04:38:14.572Z,15.70
2023-04-27T04:40:44.544Z,20.10
2023-04-27T04:43:13.688Z,24.20
2023-04-27T04:45:40.809Z,26.70
2023-04-27T04:48:08.917Z,25.90
2023-04-27T04:50:36.367Z,29.00
2023-04-27T04:53:03.276Z,35.00
2023-04-27T04:55:30.513Z,29.90
2023-04-27T04:57:57.504Z,19.10
2023-04-27T05:00:24.549Z,17.10
2023-04-27T05:02:51.596Z,14.30
2023-04-27T05:05:18.858Z,11.30
2023-04-27T05:07:45.862Z,11.20
2023-04-27T05:10:12.814Z,10.30
2023-04-27T05:12:39.646Z,10.90
2023-04-27T05:15:07.501Z,12.70
2023-04-27T05:17:34.443Z,12.50
2023-04-27T05:20:01.705Z,12.00
2023-04-27T05:22:29.599Z,12.60
2023-04-27T05:24:57.549Z,12.40
2023-04-27T05:27:24.590Z,12.90
2023-04-27T05:29:52.029Z,14.20
2023-04-27T05:32:19.009Z,13.20
2023-04-27T05:34:47.980Z,13.40
2023-04-27T05:37:16.673Z,13.50
2023-04-27T05:39:43.618Z,13.40
2023-04-27T05:42:10.553Z,12.80
2023-04-27T05:44:37.583Z,12.20
2023-04-27T05:47:04.898Z,12.70
2023-04-27T05:49:31.978Z,13.30
2023-04-27T05:51:59.564Z,14.00
2023-04-27T05:54:28.354Z,13.10
2023-04-27T05:56:55.463Z,14.40
2023-04-27T05:59:22.437Z,15.20
2023-04-27T06:01:49.445Z,14.60
2023-04-27T06:04:17.096Z,14.20
2023-04-27T06:06:45.285Z,11.00
2023-04-27T06:09:12.779Z,10.50
2023-04-27T06:11:39.920Z,10.20
2023-04-27T06:14:06.932Z,9.80
2023-04-27T06:16:34.050Z,9.30
2023-04-27T06:19:01.337Z,9.70
2023-04-27T06:21:28.727Z,10.70
2023-04-27T06:23:55.731Z,10.20
2023-04-27T06:26:22.681Z,42.30
2023-04-27T06:28:49.635Z,9.80
2023-04-27T06:31:17.384Z,15.20
2023-04-27T06:33:44.559Z,12.90
2023-04-27T06:36:12.119Z,8.30
2023-04-27T06:38:39.360Z,9.30
2023-04-27T06:41:06.374Z,9.60
2023-04-27T06:43:33.225Z,22.00
2023-04-27T06:46:00.285Z,6.90
2023-04-27T06:48:27.508Z,6.60
2023-04-27T06:50:54.773Z,6.70
2023-04-27T06:53:22.037Z,9.10
2023-04-27T06:55:49.258Z,9.00
2023-04-27T06:58:16.636Z,10.30
2023-04-27T07:00:43.553Z,5.90
2023-04-27T07:03:10.722Z,6.10
2023-04-27T07:05:38.053Z,4.80
2023-04-27T07:08:07.945Z,4.20
2023-04-27T07:13:03.313Z,9.60
2023-04-27T07:15:31.966Z,3.90
2023-04-27T07:17:59.273Z,7.40
2023-04-27T07:20:27.185Z,3.80
2023-04-27T07:22:54.154Z,7.10
2023-04-27T07:25:21.887Z,4.10
2023-04-27T07:27:49.044Z,4.60
2023-04-27T07:30:17.640Z,4.50
2023-04-27T07:32:44.685Z,4.80
2023-04-27T07:35:11.719Z,4.90
2023-04-27T07:37:39.157Z,4.50
2023-04-27T07:40:16.933Z,3.60
2023-04-27T07:42:45.218Z,4.20
2023-04-27T07:45:12.634Z,3.80
2023-04-27T07:47:40.035Z,3.90
2023-04-27T07:50:08.625Z,3.40
2023-04-27T07:52:35.465Z,13.50
2023-04-27T07:55:02.336Z,10.10
2023-04-27T07:57:29.671Z,11.40
2023-04-27T07:59:57.636Z,4.10
2023-04-27T08:02:24.975Z,5.70
2023-04-27T08:04:52.342Z,4.30
2023-04-27T08:07:20.400Z,10.50
2023-04-27T08:09:51.280Z,6.20
2023-04-27T08:14:46.992Z,10.70
2023-04-27T08:17:14.012Z,7.20
2023-04-27T08:19:41.606Z,3.80
2023-04-27T08:22:09.156Z,3.30
2023-04-27T08:24:36.910Z,3.70
2023-04-27T08:27:04.270Z,3.10
2023-04-27T08:29:31.639Z,2.90
2023-04-27T08:32:01.748Z,2.90
2023-04-27T08:34:29.600Z,6.90
2023-04-27T08:37:01.933Z,3.30
2023-04-27T08:39:31.472Z,3.10
2023-04-27T08:41:58.627Z,3.90
2023-04-27T08:44:25.738Z,6.30
2023-04-27T08:46:52.995Z,4.50
2023-04-27T08:49:21.351Z,3.30
2023-04-27T08:51:48.616Z,5.90
2023-04-27T08:54:15.605Z,4.00
2023-04-27T08:56:43.052Z,3.30
2023-04-27T08:59:17.053Z,3.90
2023-04-27T09:01:47.164Z,3.00
2023-04-27T09:04:15.480Z,3.20
2023-04-27T09:06:42.768Z,3.10
2023-04-27T09:09:09.820Z,9.80
2023-04-27T09:11:39.449Z,7.90
2023-04-27T09:14:24.725Z,4.40
2023-04-27T09:16:58.161Z,5.00
2023-04-27T09:19:27.322Z,3.90
2023-04-27T09:22:05.659Z,3.70
2023-04-27T09:24:32.744Z,4.60
2023-04-27T09:27:01.153Z,5.40
2023-04-27T09:29:39.148Z,3.20
2023-04-27T09:32:21.289Z,5.20
2023-04-27T09:34:48.931Z,3.60
2023-04-27T09:37:16.852Z,3.10
2023-04-27T09:39:43.890Z,3.00
2023-04-27T09:42:12.868Z,3.10
2023-04-27T09:44:39.920Z,3.50
2023-04-27T09:47:07.819Z,3.40
2023-04-27T09:49:35.768Z,3.10
2023-04-27T09:52:02.929Z,3.30
2023-04-27T09:54:33.910Z,5.00
2023-04-27T09:57:28.504Z,5.00
2023-04-27T10:00:17.222Z,4.50
2023-04-27T10:02:56.458Z,5.50
2023-04-27T10:05:51.670Z,3.70
2023-04-27T10:08:19.307Z,5.30
2023-04-27T10:10:50.850Z,6.60
2023-04-27T10:13:25.362Z,3.30
2023-04-27T10:15:53.842Z,4.40
2023-04-27T10:18:31.541Z,3.30
2023-04-27T10:21:11.010Z,3.40
2023-04-27T10:23:48.607Z,3.70
2023-04-27T10:26:29.698Z,2.90
2023-04-27T10:29:10.598Z,3.10
2023-04-27T10:34:12.236Z,3.30
2023-04-27T10:36:41.303Z,3.10
2023-04-27T10:39:19.503Z,6.00
2023-04-27T10:41:54.046Z,3.70
2023-04-27T10:44:30.035Z,3.50
2023-04-27T10:47:00.050Z,3.90
2023-04-27T10:49:31.414Z,4.70
2023-04-27T10:52:00.265Z,6.80
2023-04-27T10:54:29.909Z,4.10
2023-04-27T10:57:11.275Z,3.80
2023-04-27T10:59:53.669Z,3.20
2023-04-27T11:02:29.151Z,3.80
2023-04-27T11:04:57.317Z,2.60
2023-04-27T11:07:28.013Z,3.10
2023-04-27T11:09:56.693Z,2.70
2023-04-27T11:12:24.499Z,3.60
2023-04-27T11:14:58.836Z,3.50
2023-04-27T11:17:30.282Z,3.10
2023-04-27T11:19:57.625Z,3.50
2023-04-27T11:22:24.944Z,3.20
2023-04-27T11:24:52.908Z,3.10
2023-04-27T11:27:23.169Z,3.20
2023-04-27T11:29:50.594Z,3.60
2023-04-27T11:32:23.039Z,3.00
2023-04-27T11:34:53.596Z,5.80
2023-04-27T11:39:50.738Z,5.80
2023-04-27T11:42:26.515Z,5.30
2023-04-27T11:45:01.465Z,3.20
2023-04-27T11:47:30.690Z,4.40
2023-04-27T11:50:00.754Z,5.80
2023-04-27T11:52:32.191Z,4.20
2023-04-27T11:55:00.785Z,3.50
2023-04-27T11:57:30.366Z,5.80
2023-04-27T12:00:00.681Z,3.70
2023-04-27T12:02:29.272Z,3.40
2023-04-27T12:04:56.795Z,3.40
2023-04-27T12:07:24.186Z,3.70
2023-04-27T12:09:51.611Z,4.20
2023-04-27T12:12:19.673Z,3.30
2023-04-27T12:14:47.168Z,3.20
2023-04-27T12:17:14.411Z,2.60
2023-04-27T12:19:41.633Z,3.00
2023-04-27T12:22:14.802Z,3.60
2023-04-27T12:24:41.723Z,3.40
2023-04-27T12:27:09.226Z,3.70
2023-04-27T12:29:37.656Z,3.40
2023-04-27T12:32:05.301Z,3.10
2023-04-27T12:34:33.172Z,3.70
2023-04-27T12:37:00.120Z,4.50
2023-04-27T12:39:27.235Z,4.40
2023-04-27T12:41:55.469Z,3.70
2023-04-27T12:44:23.252Z,3.40
2023-04-27T12:46:51.044Z,4.00
2023-04-27T12:49:18.630Z,4.00
2023-04-27T12:51:48.201Z,3.30
2023-04-27T12:54:15.596Z,3.80
2023-04-27T12:56:43.158Z,5.50
2023-04-27T12:59:10.812Z,3.50
2023-04-27T13:01:38.146Z,3.10
2023-04-27T13:04:06.502Z,2.80
2023-04-27T13:06:33.868Z,3.10
2023-04-27T13:09:00.909Z,3.20
2023-04-27T13:11:28.099Z,3.40
2023-04-27T13:13:55.402Z,3.30
2023-04-27T13:16:25.796Z,4.20
2023-04-27T13:18:55.764Z,4.60
2023-04-27T13:21:23.699Z,3.30
2023-04-27T13:23:51.934Z,2.80
2023-04-27T13:26:19.424Z,3.20
2023-04-27T13:28:46.746Z,4.10
2023-04-27T13:31:13.810Z,3.20
2023-04-27T13:33:42.954Z,3.20
2023-04-27T13:36:12.531Z,2.80
2023-04-27T13:38:40.430Z,2.90
2023-04-27T13:41:08.940Z,2.50
2023-04-27T13:43:36.188Z,2.80
2023-04-27T13:46:04.097Z,3.20
2023-04-27T13:48:32.281Z,3.50
2023-04-27T13:50:59.473Z,2.60
2023-04-27T13:53:27.255Z,3.40
2023-04-27T13:55:55.835Z,3.30
2023-04-27T13:58:25.635Z,2.60
2023-04-27T14:00:53.924Z,3.40
2023-04-27T14:03:22.018Z,2.90
2023-04-27T14:05:51.866Z,2.60
2023-04-27T14:08:19.397Z,4.40
2023-04-27T14:10:46.711Z,3.00
2023-04-27T14:13:14.180Z,4.00
2023-04-27T14:15:42.510Z,3.10
2023-04-27T14:18:09.824Z,3.20
2023-04-27T14:20:38.531Z,2.40
2023-04-27T14:23:07.502Z,2.70
2023-04-27T14:25:35.189Z,2.40
2023-04-27T14:28:05.085Z,2.20
2023-04-27T14:30:33.323Z,2.50
2023-04-27T14:33:01.362Z,2.10
2023-04-27T14:35:28.560Z,2.70
2023-04-27T14:37:57.495Z,3.40
2023-04-27T14:40:24.745Z,4.50
2023-04-27T14:42:51.876Z,3.50
2023-04-27T14:45:19.619Z,4.70
2023-04-27T14:47:46.955Z,4.40
2023-04-27T14:50:14.495Z,3.30
2023-04-27T14:52:41.703Z,3.80
2023-04-27T14:55:09.303Z,10.10
2023-04-27T14:57:37.310Z,3.80
2023-04-27T15:00:10.135Z,11.30
2023-04-27T15:02:38.442Z,7.20
2023-04-27T15:05:06.468Z,7.10
2023-04-27T15:07:33.886Z,8.20
2023-04-27T15:10:01.142Z,5.00
2023-04-27T15:12:28.265Z,6.20
2023-04-27T15:14:55.409Z,7.60
2023-04-27T15:17:22.587Z,3.50
2023-04-27T15:19:49.816Z,3.40
2023-04-27T15:22:16.745Z,4.00
2023-04-27T15:24:43.973Z,3.70
2023-04-27T15:27:11.144Z,3.20
2023-04-27T15:29:38.425Z,3.20
2023-04-27T15:32:05.625Z,2.40
2023-04-27T15:34:32.786Z,2.80
2023-04-27T15:36:59.860Z,3.20
2023-04-27T15:39:28.026Z,3.00
2023-04-27T15:41:56.932Z,3.20
2023-04-27T15:44:23.950Z,3.90
2023-04-27T15:46:51.634Z,3.00
2023-04-27T15:49:18.989Z,2.80
2023-04-27T15:51:46.364Z,2.90
2023-04-27T15:54:13.866Z,3.00
2023-04-27T15:56:41.627Z,3.10
2023-04-27T15:59:09.248Z,3.20
2023-04-27T16:01:37.011Z,3.10
2023-04-27T16:04:04.655Z,3.00
2023-04-27T16:06:34.277Z,4.40
2023-04-27T16:09:03.746Z,3.60
2023-04-27T16:11:31.763Z,2.70
2023-04-27T16:14:00.117Z,3.00
2023-04-27T16:16:27.580Z,3.60
2023-04-27T16:18:54.818Z,4.80
2023-04-27T16:21:22.337Z,11.90
2023-04-27T16:23:49.860Z,4.10
2023-04-27T16:26:17.627Z,3.30
2023-04-27T16:28:44.821Z,3.30
2023-04-27T16:31:13.353Z,2.80
2023-04-27T16:33:40.293Z,3.10
2023-04-27T16:36:07.836Z,3.20
2023-04-27T16:38:36.546Z,6.60
2023-04-27T16:41:05.179Z,14.20
2023-04-27T16:43:33.701Z,10.00
2023-04-27T16:46:01.174Z,14.90
2023-04-27T16:48:28.810Z,15.70
2023-04-27T16:50:56.755Z,9.60
2023-04-27T16:53:24.184Z,10.40
2023-04-27T16:55:51.168Z,10.00
2023-04-27T16:58:18.922Z,13.80
2023-04-27T17:00:46.271Z,6.30
2023-04-27T17:03:13.451Z,12.00
2023-04-27T17:05:40.748Z,30.80
2023-04-27T17:08:08.814Z,17.40
2023-04-27T17:10:37.709Z,13.70
2023-04-27T17:13:06.121Z,12.50
2023-04-27T17:15:33.280Z,12.70
2023-04-27T17:18:05.476Z,8.10
2023-04-27T17:20:33.137Z,7.40
2023-04-27T17:23:00.251Z,12.50
2023-04-27T17:25:27.494Z,10.80
2023-04-27T17:27:54.504Z,7.20
2023-04-27T17:30:22.279Z,10.50
2023-04-27T17:32:49.388Z,22.80
2023-04-27T17:35:16.506Z,15.70
2023-04-27T17:37:43.701Z,36.20
2023-04-27T17:40:11.557Z,104.50
2023-04-27T17:42:38.456Z,41.40
2023-04-27T17:45:06.938Z,73.40
2023-04-27T17:47:34.423Z,71.10
2023-04-27T17:50:01.851Z,61.20
2023-04-27T17:52:28.901Z,44.00
2023-04-27T17:54:56.826Z,40.60
2023-04-27T17:57:23.943Z,21.30
2023-04-27T17:59:51.372Z,26.90
2023-04-27T18:02:18.605Z,51.00
2023-04-27T18:04:46.192Z,46.90
2023-04-27T18:07:13.544Z,31.60
2023-04-27T18:09:40.746Z,38.80
2023-04-27T18:12:11.341Z,42.30
2023-04-27T18:14:39.097Z,42.90
2023-04-27T18:17:06.669Z,41.60
2023-04-27T18:19:34.102Z,34.10
2023-04-27T18:22:01.546Z,31.30
2023-04-27T18:24:41.670Z,27.40
2023-04-27T18:27:36.323Z,29.80
2023-04-27T18:30:08.843Z,25.70
2023-04-27T18:32:36.012Z,24.00
2023-04-27T18:35:03.900Z,21.40
2023-04-27T18:37:31.411Z,21.00
2023-04-27T18:39:58.386Z,24.80
2023-04-27T18:42:25.849Z,26.30
2023-04-27T18:44:55.434Z,29.40
2023-04-27T18:47:22.508Z,27.50
2023-04-27T18:49:49.900Z,24.50
2023-04-27T18:52:17.045Z,22.80
2023-04-27T18:54:55.803Z,22.30
2023-04-27T18:57:23.216Z,18.60
2023-04-27T18:59:50.279Z,20.60
2023-04-27T19:02:17.520Z,19.20
2023-04-27T19:04:52.893Z,18.10
2023-04-27T19:07:29.260Z,17.20
2023-04-27T19:09:56.516Z,18.20
2023-04-27T19:12:24.553Z,16.00
2023-04-27T19:14:52.415Z,15.80
2023-04-27T19:17:19.879Z,13.70
2023-04-27T19:19:47.245Z,13.20
2023-04-27T19:22:14.501Z,14.60
2023-04-27T19:24:41.511Z,15.40
2023-04-27T19:27:09.697Z,15.30
2023-04-27T19:30:13.303Z,14.80
2023-04-27T19:33:01.396Z,14.60
2023-04-27T19:35:42.537Z,15.50
2023-04-27T19:40:40.859Z,14.20
2023-04-27T19:43:12.742Z,13.70
2023-04-27T19:45:45.941Z,15.00
2023-04-27T19:48:12.964Z,15.40
2023-04-27T19:50:44.060Z,15.30
2023-04-27T19:55:40.635Z,16.00
2023-04-27T19:58:07.794Z,16.10
2023-04-27T20:00:35.811Z,17.10
2023-04-27T20:03:03.001Z,17.60
2023-04-27T20:05:30.547Z,17.00
2023-04-27T20:07:58.110Z,17.90
2023-04-27T20:10:25.000Z,23.80
2023-04-27T20:12:56.729Z,29.60
2023-04-27T20:15:25.808Z,26.10
2023-04-27T20:17:54.104Z,28.50
2023-04-27T20:20:21.573Z,26.70
2023-04-27T20:22:48.738Z,36.10
2023-04-27T20:25:16.227Z,31.30
2023-04-27T20:27:43.330Z,37.00
2023-04-27T20:30:10.789Z,37.40
2023-04-27T20:32:39.916Z,34.50
2023-04-27T20:35:11.798Z,34.40
2023-04-27T20:37:40.317Z,27.00
2023-04-27T20:40:08.532Z,27.90
2023-04-27T20:42:36.616Z,27.80
2023-04-27T20:45:14.789Z,32.20
2023-04-27T20:47:48.326Z,40.40
2023-04-27T20:50:15.405Z,54.80
2023-04-27T20:52:42.229Z,50.80
2023-04-27T20:55:09.752Z,48.30
2023-04-27T20:57:36.853Z,35.80
2023-04-27T21:00:04.655Z,33.00
2023-04-27T21:02:31.689Z,35.90
2023-04-27T21:04:58.853Z,33.70
2023-04-27T21:07:25.732Z,38.90
2023-04-27T21:09:52.673Z,45.10
2023-04-27T21:12:19.721Z,34.90
2023-04-27T21:14:46.663Z,35.40
2023-04-27T21:17:15.556Z,34.90
2023-04-27T21:19:42.612Z,38.90
2023-04-27T21:22:09.647Z,40.90
2023-04-27T21:24:36.594Z,43.70
2023-04-27T21:27:04.230Z,65.10
2023-04-27T21:29:31.704Z,57.70
2023-04-27T21:31:58.552Z,53.60
2023-04-27T21:34:25.637Z,54.90
2023-04-27T21:36:52.872Z,52.30
2023-04-27T21:39:19.781Z,53.10
2023-04-27T21:41:46.617Z,56.20
2023-04-27T21:44:13.741Z,56.70
2023-04-27T21:46:40.880Z,64.10
2023-04-27T21:49:20.443Z,66.80
2023-04-27T21:51:47.305Z,62.90
2023-04-27T21:54:14.674Z,83.30
2023-04-27T21:56:42.297Z,68.50
2023-04-27T21:59:09.761Z,58.50
2023-04-27T22:01:38.308Z,52.10
2023-04-27T22:04:07.523Z,49.70
2023-04-27T22:06:34.779Z,52.40
2023-04-27T22:09:02.224Z,81.40
2023-04-27T22:11:29.310Z,107.90
2023-04-27T22:13:56.941Z,86.30
2023-04-27T22:16:24.605Z,81.90
2023-04-27T22:18:52.463Z,80.80
2023-04-27T22:21:19.789Z,68.20
2023-04-27T22:23:48.403Z,61.00
2023-04-27T22:26:15.342Z,53.80
2023-04-27T22:28:42.500Z,51.10
2023-04-27T22:31:09.363Z,49.20
2023-04-27T22:33:37.882Z,41.80
2023-04-27T22:36:06.451Z,40.30
2023-04-27T22:38:33.706Z,56.60
2023-04-27T22:41:00.756Z,68.60
2023-04-27T22:43:27.741Z,84.90
2023-04-27T22:45:55.235Z,82.10
2023-04-27T22:48:22.233Z,80.10
2023-04-27T22:50:49.176Z,64.70
2023-04-27T22:53:16.198Z,53.00
2023-04-27T22:55:43.385Z,42.70
2023-04-27T22:58:11.079Z,37.20
2023-04-27T23:00:38.080Z,41.00
2023-04-27T23:03:05.625Z,43.20
2023-04-27T23:05:34.005Z,47.70
2023-04-27T23:08:00.978Z,42.30
2023-04-27T23:10:27.934Z,33.90
2023-04-27T23:12:57.420Z,34.00
2023-04-27T23:15:24.370Z,30.50
2023-04-27T23:17:51.732Z,31.80
2023-04-27T23:20:28.088Z,31.40
2023-04-27T23:22:56.568Z,35.10
2023-04-27T23:25:24.017Z,34.70
2023-04-27T23:27:52.565Z,38.60
2023-04-27T23:30:21.821Z,35.60
2023-04-27T23:32:48.932Z,35.50
2023-04-27T23:35:16.059Z,50.00
2023-04-27T23:37:43.226Z,55.90
2023-04-27T23:40:17.231Z,63.90
2023-04-27T23:42:51.880Z,65.20
2023-04-27T23:45:26.442Z,60.10
2023-04-27T23:48:01.555Z,57.20
2023-04-27T23:50:33.902Z,50.90
2023-04-27T23:53:05.118Z,49.60
2023-04-27T23:55:38.710Z,38.80
2023-04-27T23:58:08.823Z,40.50
